createdAt,value
2022-09-05T00:04:38.257Z,1.10
2022-09-05T00:10:08.357Z,1.20
2022-09-05T00:15:28.123Z,1.20
2022-09-05T00:24:37.273Z,1.48
2022-09-05T00:26:22.315Z,1.30
2022-09-05T00:31:54.744Z,1.40
2022-09-05T00:37:01.936Z,1.20
2022-09-05T00:42:11.610Z,1.40
2022-09-05T00:47:38.891Z,1.10
2022-09-05T00:52:50.505Z,1.40
2022-09-05T00:58:34.362Z,1.45
2022-09-05T01:04:05.979Z,1.30
2022-09-05T01:14:42.349Z,1.55
2022-09-05T01:20:19.359Z,1.40
2022-09-05T01:25:46.963Z,1.23
2022-09-05T01:31:12.411Z,1.40
2022-09-05T01:36:31.621Z,1.60
2022-09-05T01:41:44.231Z,1.45
2022-09-05T01:47:01.864Z,1.25
2022-09-05T01:52:25.627Z,1.48
2022-09-05T02:03:01.754Z,1.48
2022-09-05T02:08:30.338Z,1.40
2022-09-05T02:13:57.193Z,1.40
2022-09-05T02:19:15.047Z,1.50
2022-09-05T02:24:25.764Z,1.38
2022-09-05T02:29:38.106Z,1.50
2022-09-05T02:34:53.851Z,1.30
2022-09-05T02:45:09.645Z,1.50
2022-09-05T02:45:40.603Z,1.70
2022-09-05T02:56:42.507Z,1.85
2022-09-05T02:57:43.080Z,1.83
2022-09-05T03:02:26.125Z,1.70
2022-09-05T03:07:48.101Z,1.98
2022-09-05T03:13:28.681Z,1.55
2022-09-05T03:19:14.771Z,1.42
2022-09-05T03:24:56.001Z,1.50
2022-09-05T03:30:12.305Z,1.50
2022-09-05T03:35:46.636Z,1.70
2022-09-05T03:41:12.032Z,1.73
2022-09-05T03:46:50.778Z,1.80
2022-09-05T03:57:10.744Z,1.60
2022-09-05T03:58:18.219Z,1.70
2022-09-05T04:07:08.772Z,1.90
2022-09-05T04:08:59.189Z,1.90
2022-09-05T04:14:11.063Z,1.70
2022-09-05T04:19:22.780Z,1.75
2022-09-05T04:24:33.003Z,1.65
2022-09-05T04:29:59.412Z,1.73
2022-09-05T04:35:25.392Z,2.40
2022-09-05T04:40:40.446Z,2.38
2022-09-05T04:45:54.052Z,1.98
2022-09-05T04:51:13.175Z,1.70
2022-09-05T04:56:23.711Z,1.63
2022-09-05T05:06:02.382Z,1.70
2022-09-05T05:07:10.127Z,1.70
2022-09-05T05:17:25.367Z,1.90
2022-09-05T05:18:49.092Z,1.40
2022-09-05T05:23:31.852Z,1.60
2022-09-05T05:28:52.130Z,1.60
2022-09-05T05:34:03.843Z,1.50
2022-09-05T05:39:22.538Z,1.80
2022-09-05T05:44:30.783Z,1.60
2022-09-05T05:49:49.714Z,1.75
2022-09-05T05:55:52.368Z,1.73
2022-09-05T06:00:36.424Z,1.70
2022-09-05T06:06:11.464Z,1.67
2022-09-05T06:14:51.045Z,1.70
2022-09-05T06:17:35.916Z,1.80
2022-09-05T06:23:05.011Z,1.60
2022-09-05T06:28:23.077Z,1.60
2022-09-05T06:33:48.503Z,1.60
2022-09-05T06:39:08.569Z,1.70
2022-09-05T06:44:28.416Z,1.58
2022-09-05T06:49:50.455Z,1.50
2022-09-05T06:55:28.018Z,1.65
2022-09-05T07:00:42.987Z,1.50
2022-09-05T07:05:57.848Z,1.55
2022-09-05T07:11:15.765Z,1.52
2022-09-05T07:16:38.015Z,1.40
2022-09-05T07:21:49.067Z,1.60
2022-09-05T07:27:01.721Z,1.30
2022-09-05T07:32:11.868Z,1.48
2022-09-05T07:37:24.262Z,1.30
2022-09-05T07:42:37.266Z,1.50
2022-09-05T07:47:52.028Z,1.25
2022-09-05T07:56:55.051Z,1.30
2022-09-05T07:58:26.589Z,1.30
2022-09-05T08:03:34.109Z,1.30
2022-09-05T08:08:55.975Z,1.08
2022-09-05T08:14:40.755Z,1.10
2022-09-05T08:20:12.825Z,1.20
2022-09-05T08:25:21.296Z,1.20
2022-09-05T08:30:30.550Z,0.80
2022-09-05T08:35:45.028Z,1.00
2022-09-05T08:40:56.347Z,0.88
2022-09-05T08:51:54.072Z,0.90
2022-09-05T08:57:05.250Z,0.90
2022-09-05T09:02:55.033Z,1.00
2022-09-05T09:08:16.098Z,0.82
2022-09-05T09:13:34.646Z,0.90
2022-09-05T09:19:06.007Z,1.00
2022-09-05T09:24:27.733Z,0.90
2022-09-05T09:29:39.192Z,0.88
2022-09-05T09:34:56.466Z,0.80
2022-09-05T09:40:24.655Z,0.80
2022-09-05T09:45:49.316Z,0.70
2022-09-05T09:51:14.589Z,0.60
2022-09-05T09:56:51.034Z,0.50
2022-09-05T10:04:05.733Z,0.57
2022-09-05T10:10:58.386Z,0.60
2022-09-05T10:14:24.242Z,0.55
2022-09-05T10:20:11.716Z,0.50
2022-09-05T10:25:51.426Z,0.47
2022-09-05T10:32:16.324Z,0.52
2022-09-05T10:36:41.950Z,0.50
2022-09-05T10:41:51.048Z,0.40
2022-09-05T10:47:09.596Z,0.40
2022-09-05T10:52:19.277Z,0.40
2022-09-05T10:57:38.349Z,0.33
2022-09-05T11:02:49.153Z,0.38
2022-09-05T11:08:07.290Z,0.43
2022-09-05T11:13:23.970Z,0.30
2022-09-05T11:18:55.200Z,0.40
2022-09-05T11:24:10.398Z,0.40
2022-09-05T11:29:19.030Z,0.35
2022-09-05T11:39:57.301Z,0.40
2022-09-05T11:40:44.818Z,0.30
2022-09-05T11:46:23.593Z,0.20
2022-09-05T11:52:07.667Z,0.30
2022-09-05T11:57:34.454Z,0.40
2022-09-05T12:03:12.203Z,0.30
2022-09-05T12:08:43.412Z,0.40
2022-09-05T12:13:54.788Z,0.40
2022-09-05T12:19:19.367Z,0.30
2022-09-05T12:25:15.559Z,0.50
2022-09-05T12:30:02.772Z,0.40
2022-09-05T12:36:07.973Z,0.20
2022-09-05T12:41:36.786Z,0.45
2022-09-05T12:46:14.995Z,0.50
2022-09-05T12:51:46.139Z,0.55
2022-09-05T13:02:01.489Z,0.45
2022-09-05T13:03:07.315Z,0.45
2022-09-05T13:14:53.613Z,0.50
2022-09-05T13:18:44.441Z,0.50
2022-09-05T13:24:00.998Z,0.52
2022-09-05T13:29:16.807Z,0.40
2022-09-05T13:38:17.618Z,0.40
2022-09-05T13:39:57.332Z,0.60
2022-09-05T13:45:06.397Z,0.63
2022-09-05T13:50:24.044Z,0.50
2022-09-05T13:55:41.590Z,0.50
2022-09-05T14:01:14.504Z,0.40
2022-09-05T14:06:48.921Z,0.52
2022-09-05T14:12:05.441Z,0.40
2022-09-05T14:23:03.859Z,0.50
2022-09-05T14:28:16.013Z,0.60
2022-09-05T14:37:45.452Z,0.38
2022-09-05T14:39:31.986Z,0.45
2022-09-05T14:44:51.769Z,0.50
2022-09-05T14:50:17.926Z,0.40
2022-09-05T14:55:25.721Z,0.60
2022-09-05T15:02:51.542Z,0.43
2022-09-05T15:05:59.006Z,0.50
2022-09-05T15:12:17.200Z,0.30
2022-09-05T15:16:40.474Z,0.55
2022-09-05T15:21:48.316Z,0.57
2022-09-05T15:26:54.953Z,0.40
2022-09-05T15:32:16.269Z,0.40
2022-09-05T15:37:31.901Z,0.40
2022-09-05T15:42:38.508Z,0.70
2022-09-05T15:47:50.657Z,0.68
2022-09-05T15:52:58.807Z,0.60
2022-09-05T15:58:07.513Z,0.60
2022-09-05T16:05:10.296Z,0.60
2022-09-05T16:10:36.592Z,0.60
2022-09-05T16:14:30.290Z,0.40
2022-09-05T16:23:20.280Z,0.57
2022-09-05T16:25:11.380Z,0.60
2022-09-05T16:30:23.911Z,0.75
2022-09-05T16:35:29.161Z,0.80
2022-09-05T16:40:41.368Z,1.08
2022-09-05T16:45:52.041Z,1.00
2022-09-05T16:51:13.456Z,0.95
2022-09-05T16:56:26.456Z,0.90
2022-09-05T17:07:06.320Z,0.80
2022-09-05T17:12:22.065Z,0.90
2022-09-05T17:18:19.411Z,0.85
2022-09-05T17:27:42.800Z,1.00
2022-09-05T17:29:29.819Z,0.90
2022-09-05T17:34:43.432Z,0.90
2022-09-05T17:39:56.608Z,1.00
2022-09-05T17:45:15.666Z,0.98
2022-09-05T17:50:23.206Z,1.08
2022-09-05T17:55:58.761Z,0.98
2022-09-05T18:01:26.786Z,1.20
2022-09-05T18:06:35.819Z,1.10
2022-09-05T18:17:59.965Z,1.00
2022-09-05T18:29:19.251Z,1.20
2022-09-05T18:34:45.568Z,1.13
2022-09-05T18:40:07.198Z,1.10
2022-09-05T18:45:16.466Z,1.10
2022-09-05T18:50:27.943Z,1.20
2022-09-05T18:56:14.249Z,1.10
2022-09-05T19:01:22.727Z,1.13
2022-09-05T19:06:38.000Z,1.20
2022-09-05T19:11:55.371Z,1.20
2022-09-05T19:17:07.602Z,1.30
2022-09-05T19:23:08.625Z,1.30
2022-09-05T19:34:56.295Z,1.10
2022-09-05T19:37:13.890Z,1.10
2022-09-05T19:41:13.581Z,1.15
2022-09-05T19:47:45.139Z,1.30
2022-09-05T19:50:01.696Z,1.10
2022-09-05T19:55:21.234Z,1.00
2022-09-05T20:00:31.102Z,1.30
2022-09-05T20:05:36.022Z,1.15
2022-09-05T20:10:40.721Z,1.30
2022-09-05T20:15:48.043Z,1.15
2022-09-05T20:20:56.092Z,1.20
2022-09-05T20:26:05.790Z,1.50
2022-09-05T20:31:19.391Z,1.30
2022-09-05T20:42:14.070Z,1.40
2022-09-05T20:43:14.981Z,1.55
2022-09-05T20:50:35.709Z,1.38
2022-09-05T20:54:18.233Z,1.35
2022-09-05T20:58:19.292Z,1.30
2022-09-05T21:03:36.776Z,1.38
2022-09-05T21:08:41.942Z,1.40
2022-09-05T21:13:53.534Z,1.30
2022-09-05T21:19:00.965Z,1.60
2022-09-05T21:24:16.117Z,1.40
2022-09-05T21:29:32.805Z,1.40
2022-09-05T21:34:45.339Z,1.60
2022-09-05T21:40:00.529Z,1.63
2022-09-05T21:47:42.244Z,1.60
2022-09-05T21:50:39.749Z,1.75
2022-09-05T21:59:21.315Z,1.40
2022-09-05T22:01:09.045Z,1.55
2022-09-05T22:06:18.778Z,1.50
2022-09-05T22:11:23.830Z,1.70
2022-09-05T22:16:34.530Z,1.60
2022-09-05T22:21:43.041Z,1.50
2022-09-05T22:27:12.267Z,1.60
2022-09-05T22:32:28.562Z,1.77
2022-09-05T22:37:44.567Z,1.52
2022-09-05T22:42:58.239Z,1.50
2022-09-05T22:48:08.813Z,1.60
2022-09-05T22:53:15.993Z,1.37
2022-09-05T22:58:21.639Z,1.20
2022-09-05T23:03:26.304Z,0.80
2022-09-05T23:08:33.613Z,0.90
2022-09-05T23:13:38.288Z,0.80
2022-09-05T23:18:43.586Z,0.90
2022-09-05T23:23:50.788Z,0.80
2022-09-05T23:28:55.439Z,0.90
2022-09-05T23:34:00.079Z,0.73
2022-09-05T23:39:07.313Z,0.73
2022-09-05T23:44:12.137Z,0.93
2022-09-05T23:49:16.989Z,0.93
2022-09-05T23:54:24.827Z,0.70
2022-09-05T23:59:29.595Z,0.80
